Disclaimer

Please do not use the information listed here in-flight or in-navigation, as they are not provided to us by the airports but are provided by volunteers, so they might be outdated.

Search


Regions


Airport information page

Radio informations:
Tower (TWR) - 118.75 MHz
DEP - 124.8 MHz
Automatic Terminal Information Service (ATIS) - 126.45 MHz
Approach (APP) - 125.0 MHz

Airport informations:
Latitude: 33° 32' 46.00" N
Longitude: 133° 40' 10.00" E
Elevation: 42 feet - 13 meters
Operating hours: Remarks
Operating agency: Civil government, landing fees and diplomatic clearance may be required
Timezone: UTC+9
Fuel: Jet A, without icing inhibitor.

Runway information:
14/32 - 8203 x 148 feet< - >2500 x 45 meters

Recent METARs:
RJOK 201100Z 35006KT 9999 FEW030 10/05 Q1023

Airport on the map: